End of an era: I noticed today that the ... / 2008-11-21

2008-11-21 End of an era: I noticed today that the ...
End of an era: I noticed today that the METAR for EHSB (Soesterberg) wasn't updated anymore. The last one I found:
2008/11/20 09:25
EHSB 200925Z AUTO 28014KT 9999 // 11/09 Q1010
The Soesterberg Wolfhounds were already gone but now all normal flying seems to be terminated and the meteorologist has stopped.

Tags: , ,

IPv6 check

Running test...
, reachable as koos+website@idefix.net. PGP encrypted e-mail preferred. PGP key 5BA9 368B E6F3 34E4 local copy PGP key 5BA9 368B E6F3 34E4 via keyservers

RSS
Meningen zijn die van mezelf, wat ik schrijf is beschermd door auteursrecht. Sommige publicaties bevatten een expliciete vermelding dat ze ongevraagd gedeeld mogen worden.
My opinions are my own, what I write is protected by copyrights. Some publications contain an explicit license statement which allows sharing without asking permission.
Other webprojects: Camp Wireless, wireless Internet access at campsites, The Virtual Bookcase, book reviews
This page generated by $Id: newsitem.cgi,v 1.55 2021/11/09 13:09:49 koos Exp $ in 0.005581 seconds.